This is the latest recevied weather packets stored in our database for station/object KC2WGU. If no packets are shown the sender has not sent any weather packets the latest 1 day(s).
| Time | Temp. | Humidity | Pressure | Rain* | Wind** | Luminosity | Snow |
|---|---|---|---|---|---|---|---|
| 1777989621 | 20.56° C | 59% | 1004.1 hPa | 0 mm | 1.34 m/s, 208° | 0 W/m² | - |
| 1777989019 | 19.44° C | 62% | 1004.1 hPa | 0 mm | 1.34 m/s, 208° | 0 W/m² | - |
| 1777988420 | 18.89° C | 61% | 1004.3 hPa | 0 mm | 1.34 m/s, 208° | 0 W/m² | - |
| 1777987832 | 18.89° C | 60% | 1004.6 hPa | 0 mm | 1.34 m/s, 208° | 0 W/m² | - |
| 1777987220 | 19.44° C | 58% | 1004.5 hPa | 0 mm | 1.34 m/s, 208° | 0 W/m² | - |
| 1777986620 | 19.44° C | 57% | 1004.6 hPa | 0 mm | 1.34 m/s, 208° | 0 W/m² | - |
| 1777986020 | 19.44° C | 59% | 1004.6 hPa | 0 mm | 1.34 m/s, 208° | 0 W/m² | - |
| 1777985420 | 18.89° C | 60% | 1004.4 hPa | 0 mm | 1.34 m/s, 208° | 0 W/m² | - |
| 1777984820 | 18.89° C | 61% | 1004.4 hPa | 0 mm | 1.34 m/s, 208° | 0 W/m² | - |
| 1777984220 | 18.33° C | 61% | 1004.3 hPa | 0 mm | 1.34 m/s, 208° | 0 W/m² | - |
| 1777983625 | 17.78° C | 62% | 1004.3 hPa | 0 mm | 1.34 m/s, 208° | 0 W/m² | - |
| 1777983020 | 18.33° C | 61% | 1004.1 hPa | 0 mm | 1.34 m/s, 208° | 0 W/m² | - |
| 1777982421 | 18.33° C | 60% | 1004.1 hPa | 0 mm | 1.34 m/s, 208° | 0 W/m² | - |
| 1777981822 | 18.33° C | 61% | 1004.5 hPa | 0 mm | 1.34 m/s, 208° | 0 W/m² | - |
| 1777981221 | 17.78° C | 62% | 1004.4 hPa | 0 mm | 1.34 m/s, 208° | 0 W/m² | - |
| 1777980620 | 17.22° C | 64% | 1004.4 hPa | 0 mm | 1.34 m/s, 208° | 0 W/m² | - |
| 1777980022 | 17.22° C | 65% | 1004.4 hPa | 0 mm | 1.34 m/s, 208° | 0 W/m² | - |
| 1777979420 | 16.67° C | 65% | 1004.2 hPa | 0 mm | 1.34 m/s, 208° | 0 W/m² | - |
| 1777978820 | 16.11° C | 66% | 1003.9 hPa | 0 mm | 1.34 m/s, 208° | 0 W/m² | - |
| 1777978220 | 16.11° C | 67% | 1003.9 hPa | 0 mm | 1.34 m/s, 208° | 0 W/m² | - |
| 1777977620 | 15.56° C | 69% | 1003.9 hPa | 0 mm | 1.34 m/s, 208° | 0 W/m² | - |
| 1777977020 | 15° C | 70% | 1003.9 hPa | 0 mm | 1.34 m/s, 208° | 0 W/m² | - |
| 1777976420 | 14.44° C | 72% | 1003.9 hPa | 0 mm | 1.34 m/s, 208° | 0 W/m² | - |
| 1777975820 | 13.89° C | 74% | 1004 hPa | 0 mm | 1.34 m/s, 208° | 0 W/m² | - |
| 1777975220 | 14.44° C | 72% | 1004.1 hPa | 0 mm | 1.34 m/s, 208° | 0 W/m² | - |
* Rain latest hour (hover to see other rain measurements)
** Current wind speed in m/s (hover to see current wind gust speed)